sensor_id;sensor_type;location;lat;lon;timestamp;P1;durP1;ratioP1;P2;durP2;ratioP2
15012;SDS011;7603;49.432;11.418;2022-09-09T00:04:31;4.13;;;3.83;;
15012;SDS011;7603;49.432;11.418;2022-09-09T00:07:11;6.35;;;3.90;;
15012;SDS011;7603;49.432;11.418;2022-09-09T00:09:40;3.80;;;3.55;;
15012;SDS011;7603;49.432;11.418;2022-09-09T00:12:17;3.95;;;3.58;;
15012;SDS011;7603;49.432;11.418;2022-09-09T00:15:02;6.35;;;4.43;;
15012;SDS011;7603;49.432;11.418;2022-09-09T00:17:46;5.65;;;4.43;;
15012;SDS011;7603;49.432;11.418;2022-09-09T00:23:00;4.25;;;3.70;;
15012;SDS011;7603;49.432;11.418;2022-09-09T00:25:42;4.50;;;4.20;;
15012;SDS011;7603;49.432;11.418;2022-09-09T00:28:45;3.88;;;3.58;;
15012;SDS011;7603;49.432;11.418;2022-09-09T00:31:21;4.90;;;4.50;;
15012;SDS011;7603;49.432;11.418;2022-09-09T00:34:04;4.35;;;3.95;;
15012;SDS011;7603;49.432;11.418;2022-09-09T00:36:37;5.20;;;4.80;;
15012;SDS011;7603;49.432;11.418;2022-09-09T00:39:04;4.28;;;3.97;;
15012;SDS011;7603;49.432;11.418;2022-09-09T00:54:40;5.95;;;4.55;;
15012;SDS011;7603;49.432;11.418;2022-09-09T01:02:28;5.13;;;4.72;;
15012;SDS011;7603;49.432;11.418;2022-09-09T01:05:24;5.90;;;4.10;;
15012;SDS011;7603;49.432;11.418;2022-09-09T01:08:01;4.18;;;3.63;;
15012;SDS011;7603;49.432;11.418;2022-09-09T01:10:39;5.43;;;5.00;;
15012;SDS011;7603;49.432;11.418;2022-09-09T01:13:35;7.43;;;6.88;;
15012;SDS011;7603;49.432;11.418;2022-09-09T01:16:01;8.85;;;8.35;;
15012;SDS011;7603;49.432;11.418;2022-09-09T01:18:32;6.55;;;6.15;;
15012;SDS011;7603;49.432;11.418;2022-09-09T01:21:27;6.68;;;6.22;;
15012;SDS011;7603;49.432;11.418;2022-09-09T01:27:10;6.32;;;5.82;;
15012;SDS011;7603;49.432;11.418;2022-09-09T01:29:39;4.05;;;3.80;;
15012;SDS011;7603;49.432;11.418;2022-09-09T01:37:58;4.32;;;3.83;;
15012;SDS011;7603;49.432;11.418;2022-09-09T01:40:24;5.53;;;5.03;;
15012;SDS011;7603;49.432;11.418;2022-09-09T01:42:51;4.78;;;4.45;;
15012;SDS011;7603;49.432;11.418;2022-09-09T01:45:18;5.70;;;4.80;;
15012;SDS011;7603;49.432;11.418;2022-09-09T01:47:44;4.82;;;4.53;;
15012;SDS011;7603;49.432;11.418;2022-09-09T01:50:11;5.10;;;4.68;;
15012;SDS011;7603;49.432;11.418;2022-09-09T01:52:40;9.00;;;6.25;;
15012;SDS011;7603;49.432;11.418;2022-09-09T01:55:07;7.18;;;4.80;;
15012;SDS011;7603;49.432;11.418;2022-09-09T01:57:37;5.07;;;4.78;;
15012;SDS011;7603;49.432;11.418;2022-09-09T02:00:11;5.90;;;5.43;;
15012;SDS011;7603;49.432;11.418;2022-09-09T02:05:15;6.20;;;5.80;;
15012;SDS011;7603;49.432;11.418;2022-09-09T02:08:11;5.88;;;5.38;;
15012;SDS011;7603;49.432;11.418;2022-09-09T02:10:47;8.25;;;5.93;;
15012;SDS011;7603;49.432;11.418;2022-09-09T02:13:15;6.10;;;5.65;;
15012;SDS011;7603;49.432;11.418;2022-09-09T02:18:47;5.85;;;5.05;;
15012;SDS011;7603;49.432;11.418;2022-09-09T02:21:11;5.20;;;4.65;;
15012;SDS011;7603;49.432;11.418;2022-09-09T02:23:39;8.48;;;6.75;;
15012;SDS011;7603;49.432;11.418;2022-09-09T02:26:08;6.32;;;5.72;;
15012;SDS011;7603;49.432;11.418;2022-09-09T02:28:36;4.72;;;4.43;;
15012;SDS011;7603;49.432;11.418;2022-09-09T02:31:03;7.20;;;5.60;;
15012;SDS011;7603;49.432;11.418;2022-09-09T02:33:32;6.18;;;5.57;;
15012;SDS011;7603;49.432;11.418;2022-09-09T02:36:03;5.30;;;4.78;;
15012;SDS011;7603;49.432;11.418;2022-09-09T02:38:32;6.60;;;4.90;;
15012;SDS011;7603;49.432;11.418;2022-09-09T02:41:01;5.60;;;4.38;;
15012;SDS011;7603;49.432;11.418;2022-09-09T02:43:31;8.40;;;4.95;;
15012;SDS011;7603;49.432;11.418;2022-09-09T02:48:48;6.47;;;4.95;;
15012;SDS011;7603;49.432;11.418;2022-09-09T02:51:42;5.78;;;3.72;;
15012;SDS011;7603;49.432;11.418;2022-09-09T02:56:56;6.22;;;3.92;;
15012;SDS011;7603;49.432;11.418;2022-09-09T02:59:26;3.88;;;3.67;;
15012;SDS011;7603;49.432;11.418;2022-09-09T03:01:52;4.05;;;3.75;;
15012;SDS011;7603;49.432;11.418;2022-09-09T03:04:18;9.27;;;3.67;;
15012;SDS011;7603;49.432;11.418;2022-09-09T03:06:45;4.40;;;4.10;;
15012;SDS011;7603;49.432;11.418;2022-09-09T03:09:10;6.13;;;3.47;;
15012;SDS011;7603;49.432;11.418;2022-09-09T03:11:36;4.00;;;3.67;;
15012;SDS011;7603;49.432;11.418;2022-09-09T03:14:03;3.80;;;3.05;;
15012;SDS011;7603;49.432;11.418;2022-09-09T03:16:29;4.72;;;3.22;;
15012;SDS011;7603;49.432;11.418;2022-09-09T03:18:55;4.38;;;2.80;;
15012;SDS011;7603;49.432;11.418;2022-09-09T03:21:21;4.10;;;2.92;;
15012;SDS011;7603;49.432;11.418;2022-09-09T03:23:46;3.05;;;2.80;;
15012;SDS011;7603;49.432;11.418;2022-09-09T03:26:12;3.65;;;3.05;;
15012;SDS011;7603;49.432;11.418;2022-09-09T03:28:40;3.75;;;2.95;;
15012;SDS011;7603;49.432;11.418;2022-09-09T03:31:06;3.17;;;2.88;;
15012;SDS011;7603;49.432;11.418;2022-09-09T03:33:35;3.00;;;2.80;;
15012;SDS011;7603;49.432;11.418;2022-09-09T03:36:02;3.67;;;3.03;;
15012;SDS011;7603;49.432;11.418;2022-09-09T03:38:28;4.40;;;3.40;;
15012;SDS011;7603;49.432;11.418;2022-09-09T03:40:55;4.43;;;3.30;;
15012;SDS011;7603;49.432;11.418;2022-09-09T03:43:22;4.32;;;3.13;;
15012;SDS011;7603;49.432;11.418;2022-09-09T03:45:51;3.63;;;3.38;;
15012;SDS011;7603;49.432;11.418;2022-09-09T03:48:17;4.45;;;3.20;;
15012;SDS011;7603;49.432;11.418;2022-09-09T03:50:44;2.92;;;2.70;;
15012;SDS011;7603;49.432;11.418;2022-09-09T03:53:14;3.70;;;3.03;;
15012;SDS011;7603;49.432;11.418;2022-09-09T03:55:50;3.15;;;2.85;;
15012;SDS011;7603;49.432;11.418;2022-09-09T03:58:19;4.35;;;3.60;;
15012;SDS011;7603;49.432;11.418;2022-09-09T04:00:59;5.95;;;3.78;;
15012;SDS011;7603;49.432;11.418;2022-09-09T04:03:27;8.18;;;3.63;;
15012;SDS011;7603;49.432;11.418;2022-09-09T04:05:53;3.22;;;2.97;;
15012;SDS011;7603;49.432;11.418;2022-09-09T04:08:20;3.30;;;3.10;;
15012;SDS011;7603;49.432;11.418;2022-09-09T04:10:49;3.30;;;2.80;;
15012;SDS011;7603;49.432;11.418;2022-09-09T04:13:15;4.07;;;3.00;;
15012;SDS011;7603;49.432;11.418;2022-09-09T04:15:42;3.53;;;3.00;;
15012;SDS011;7603;49.432;11.418;2022-09-09T04:18:10;3.38;;;3.17;;
15012;SDS011;7603;49.432;11.418;2022-09-09T04:20:36;3.53;;;3.08;;
15012;SDS011;7603;49.432;11.418;2022-09-09T04:23:03;3.10;;;2.90;;
15012;SDS011;7603;49.432;11.418;2022-09-09T04:25:29;4.40;;;3.08;;
15012;SDS011;7603;49.432;11.418;2022-09-09T04:27:55;4.25;;;3.33;;
15012;SDS011;7603;49.432;11.418;2022-09-09T04:30:21;4.05;;;3.35;;
15012;SDS011;7603;49.432;11.418;2022-09-09T04:32:47;2.97;;;2.78;;
15012;SDS011;7603;49.432;11.418;2022-09-09T04:35:12;3.38;;;3.15;;
15012;SDS011;7603;49.432;11.418;2022-09-09T04:37:38;3.45;;;3.25;;
15012;SDS011;7603;49.432;11.418;2022-09-09T04:40:04;5.03;;;3.15;;
15012;SDS011;7603;49.432;11.418;2022-09-09T04:42:34;5.35;;;3.28;;
15012;SDS011;7603;49.432;11.418;2022-09-09T04:45:00;3.15;;;2.95;;
15012;SDS011;7603;49.432;11.418;2022-09-09T04:47:27;3.42;;;3.15;;
15012;SDS011;7603;49.432;11.418;2022-09-09T04:49:52;3.53;;;3.28;;
15012;SDS011;7603;49.432;11.418;2022-09-09T04:52:19;4.07;;;3.10;;
15012;SDS011;7603;49.432;11.418;2022-09-09T04:54:45;3.17;;;2.60;;
15012;SDS011;7603;49.432;11.418;2022-09-09T04:57:11;6.07;;;2.92;;
15012;SDS011;7603;49.432;11.418;2022-09-09T04:59:38;3.25;;;2.90;;
15012;SDS011;7603;49.432;11.418;2022-09-09T05:02:06;3.30;;;3.00;;
15012;SDS011;7603;49.432;11.418;2022-09-09T05:04:32;3.88;;;3.25;;
15012;SDS011;7603;49.432;11.418;2022-09-09T05:06:58;4.97;;;3.67;;
15012;SDS011;7603;49.432;11.418;2022-09-09T05:09:24;4.80;;;2.67;;
15012;SDS011;7603;49.432;11.418;2022-09-09T05:11:49;3.30;;;3.10;;
15012;SDS011;7603;49.432;11.418;2022-09-09T05:14:16;3.30;;;3.00;;
15012;SDS011;7603;49.432;11.418;2022-09-09T05:16:43;4.82;;;2.58;;
15012;SDS011;7603;49.432;11.418;2022-09-09T05:19:09;4.65;;;3.08;;
15012;SDS011;7603;49.432;11.418;2022-09-09T05:21:35;2.83;;;2.63;;
15012;SDS011;7603;49.432;11.418;2022-09-09T05:24:01;9.18;;;8.27;;
15012;SDS011;7603;49.432;11.418;2022-09-09T05:26:26;9.70;;;8.77;;
15012;SDS011;7603;49.432;11.418;2022-09-09T05:28:54;15.93;;;14.52;;
15012;SDS011;7603;49.432;11.418;2022-09-09T05:31:20;7.07;;;6.47;;
15012;SDS011;7603;49.432;11.418;2022-09-09T05:33:46;5.80;;;5.30;;
15012;SDS011;7603;49.432;11.418;2022-09-09T05:36:15;8.05;;;5.10;;
15012;SDS011;7603;49.432;11.418;2022-09-09T05:38:43;6.32;;;4.63;;
15012;SDS011;7603;49.432;11.418;2022-09-09T05:41:09;5.13;;;3.78;;
15012;SDS011;7603;49.432;11.418;2022-09-09T05:43:36;6.43;;;2.60;;
15012;SDS011;7603;49.432;11.418;2022-09-09T05:46:06;4.55;;;2.92;;
15012;SDS011;7603;49.432;11.418;2022-09-09T05:48:34;3.17;;;2.50;;
15012;SDS011;7603;49.432;11.418;2022-09-09T05:51:05;2.90;;;2.63;;
15012;SDS011;7603;49.432;11.418;2022-09-09T05:53:35;3.13;;;2.75;;
15012;SDS011;7603;49.432;11.418;2022-09-09T05:58:37;4.35;;;2.58;;
15012;SDS011;7603;49.432;11.418;2022-09-09T06:01:07;4.38;;;2.85;;
15012;SDS011;7603;49.432;11.418;2022-09-09T06:03:35;3.35;;;2.50;;
15012;SDS011;7603;49.432;11.418;2022-09-09T06:06:04;3.53;;;2.80;;
15012;SDS011;7603;49.432;11.418;2022-09-09T06:08:32;3.72;;;2.63;;
15012;SDS011;7603;49.432;11.418;2022-09-09T06:11:03;4.72;;;2.60;;
15012;SDS011;7603;49.432;11.418;2022-09-09T06:13:42;3.55;;;2.50;;
15012;SDS011;7603;49.432;11.418;2022-09-09T06:16:08;2.50;;;2.28;;
15012;SDS011;7603;49.432;11.418;2022-09-09T06:18:36;2.85;;;2.47;;
15012;SDS011;7603;49.432;11.418;2022-09-09T06:21:03;2.60;;;2.40;;
15012;SDS011;7603;49.432;11.418;2022-09-09T06:23:31;3.70;;;1.90;;
15012;SDS011;7603;49.432;11.418;2022-09-09T06:26:04;3.67;;;2.00;;
15012;SDS011;7603;49.432;11.418;2022-09-09T06:28:36;7.78;;;3.25;;
15012;SDS011;7603;49.432;11.418;2022-09-09T06:31:09;4.90;;;2.97;;
15012;SDS011;7603;49.432;11.418;2022-09-09T06:33:39;5.80;;;2.50;;
15012;SDS011;7603;49.432;11.418;2022-09-09T06:36:16;3.80;;;2.50;;
15012;SDS011;7603;49.432;11.418;2022-09-09T06:38:44;4.15;;;2.53;;
15012;SDS011;7603;49.432;11.418;2022-09-09T06:41:10;2.63;;;2.00;;
15012;SDS011;7603;49.432;11.418;2022-09-09T06:43:37;3.60;;;2.20;;
15012;SDS011;7603;49.432;11.418;2022-09-09T06:46:07;4.25;;;1.90;;
15012;SDS011;7603;49.432;11.418;2022-09-09T06:48:35;2.10;;;1.75;;
15012;SDS011;7603;49.432;11.418;2022-09-09T06:51:02;4.05;;;2.05;;
15012;SDS011;7603;49.432;11.418;2022-09-09T06:53:33;3.03;;;1.95;;
15012;SDS011;7603;49.432;11.418;2022-09-09T06:56:02;4.45;;;2.05;;
15012;SDS011;7603;49.432;11.418;2022-09-09T06:58:48;1.73;;;1.60;;
15012;SDS011;7603;49.432;11.418;2022-09-09T07:01:15;2.53;;;2.33;;
15012;SDS011;7603;49.432;11.418;2022-09-09T07:03:45;4.15;;;2.05;;
15012;SDS011;7603;49.432;11.418;2022-09-09T07:06:17;3.63;;;2.05;;
15012;SDS011;7603;49.432;11.418;2022-09-09T07:08:54;4.28;;;2.20;;
15012;SDS011;7603;49.432;11.418;2022-09-09T07:11:21;3.55;;;2.38;;
15012;SDS011;7603;49.432;11.418;2022-09-09T07:13:48;2.20;;;2.10;;
15012;SDS011;7603;49.432;11.418;2022-09-09T07:16:18;3.97;;;1.95;;
15012;SDS011;7603;49.432;11.418;2022-09-09T07:18:45;2.20;;;2.00;;
15012;SDS011;7603;49.432;11.418;2022-09-09T07:21:11;4.35;;;2.10;;
15012;SDS011;7603;49.432;11.418;2022-09-09T07:23:38;6.60;;;2.00;;
15012;SDS011;7603;49.432;11.418;2022-09-09T07:26:12;2.72;;;2.20;;
15012;SDS011;7603;49.432;11.418;2022-09-09T07:28:39;2.20;;;2.00;;
15012;SDS011;7603;49.432;11.418;2022-09-09T07:31:06;3.45;;;2.03;;
15012;SDS011;7603;49.432;11.418;2022-09-09T07:33:38;3.08;;;2.10;;
15012;SDS011;7603;49.432;11.418;2022-09-09T07:36:14;2.00;;;1.80;;
15012;SDS011;7603;49.432;11.418;2022-09-09T07:38:46;1.80;;;1.70;;
15012;SDS011;7603;49.432;11.418;2022-09-09T07:44:20;4.68;;;2.83;;
15012;SDS011;7603;49.432;11.418;2022-09-09T07:46:48;3.35;;;2.33;;
15012;SDS011;7603;49.432;11.418;2022-09-09T07:49:14;7.78;;;2.03;;
15012;SDS011;7603;49.432;11.418;2022-09-09T07:51:41;2.50;;;2.17;;
15012;SDS011;7603;49.432;11.418;2022-09-09T07:54:09;3.60;;;1.70;;
15012;SDS011;7603;49.432;11.418;2022-09-09T07:56:37;2.10;;;2.00;;
15012;SDS011;7603;49.432;11.418;2022-09-09T07:59:04;4.00;;;1.70;;
15012;SDS011;7603;49.432;11.418;2022-09-09T08:01:35;3.10;;;1.63;;
15012;SDS011;7603;49.432;11.418;2022-09-09T08:04:05;2.13;;;2.00;;
15012;SDS011;7603;49.432;11.418;2022-09-09T08:06:42;2.60;;;2.40;;
15012;SDS011;7603;49.432;11.418;2022-09-09T08:09:11;2.78;;;2.08;;
15012;SDS011;7603;49.432;11.418;2022-09-09T08:11:38;4.35;;;1.70;;
15012;SDS011;7603;49.432;11.418;2022-09-09T08:14:05;3.67;;;1.98;;
15012;SDS011;7603;49.432;11.418;2022-09-09T08:16:36;2.72;;;1.65;;
15012;SDS011;7603;49.432;11.418;2022-09-09T08:19:03;3.63;;;1.35;;
15012;SDS011;7603;49.432;11.418;2022-09-09T08:21:31;2.75;;;1.45;;
15012;SDS011;7603;49.432;11.418;2022-09-09T08:23:58;3.42;;;1.83;;
15012;SDS011;7603;49.432;11.418;2022-09-09T08:26:26;4.80;;;3.83;;
15012;SDS011;7603;49.432;11.418;2022-09-09T08:28:56;2.25;;;1.63;;
15012;SDS011;7603;49.432;11.418;2022-09-09T08:31:27;2.30;;;1.48;;
15012;SDS011;7603;49.432;11.418;2022-09-09T08:33:55;2.45;;;1.80;;
15012;SDS011;7603;49.432;11.418;2022-09-09T08:36:22;1.67;;;1.40;;
15012;SDS011;7603;49.432;11.418;2022-09-09T08:38:51;2.42;;;1.55;;
15012;SDS011;7603;49.432;11.418;2022-09-09T08:52:40;2.30;;;1.70;;
15012;SDS011;7603;49.432;11.418;2022-09-09T08:57:55;1.40;;;1.20;;
15012;SDS011;7603;49.432;11.418;2022-09-09T09:00:28;1.23;;;1.13;;
15012;SDS011;7603;49.432;11.418;2022-09-09T09:03:15;2.17;;;1.40;;
15012;SDS011;7603;49.432;11.418;2022-09-09T09:08:45;2.05;;;1.48;;
15012;SDS011;7603;49.432;11.418;2022-09-09T09:11:16;1.63;;;1.38;;
15012;SDS011;7603;49.432;11.418;2022-09-09T09:13:47;1.92;;;1.02;;
15012;SDS011;7603;49.432;11.418;2022-09-09T09:16:23;2.47;;;1.55;;
15012;SDS011;7603;49.432;11.418;2022-09-09T09:18:51;4.07;;;1.35;;
15012;SDS011;7603;49.432;11.418;2022-09-09T09:21:32;1.52;;;1.13;;
15012;SDS011;7603;49.432;11.418;2022-09-09T09:24:05;2.90;;;1.10;;
15012;SDS011;7603;49.432;11.418;2022-09-09T09:26:47;0.82;;;0.82;;
15012;SDS011;7603;49.432;11.418;2022-09-09T09:29:17;2.13;;;1.92;;
15012;SDS011;7603;49.432;11.418;2022-09-09T09:31:51;1.10;;;1.10;;
15012;SDS011;7603;49.432;11.418;2022-09-09T09:34:19;2.53;;;1.30;;
15012;SDS011;7603;49.432;11.418;2022-09-09T09:37:11;1.52;;;1.13;;
15012;SDS011;7603;49.432;11.418;2022-09-09T09:39:42;2.08;;;1.10;;
15012;SDS011;7603;49.432;11.418;2022-09-09T09:42:10;1.05;;;1.05;;
15012;SDS011;7603;49.432;11.418;2022-09-09T09:44:40;1.10;;;1.00;;
15012;SDS011;7603;49.432;11.418;2022-09-09T09:49:39;1.25;;;1.23;;
15012;SDS011;7603;49.432;11.418;2022-09-09T09:52:21;1.27;;;1.17;;
15012;SDS011;7603;49.432;11.418;2022-09-09T09:54:49;2.05;;;1.27;;
15012;SDS011;7603;49.432;11.418;2022-09-09T09:57:16;2.58;;;1.50;;
15012;SDS011;7603;49.432;11.418;2022-09-09T09:59:43;2.85;;;1.50;;
15012;SDS011;7603;49.432;11.418;2022-09-09T10:02:14;1.67;;;1.58;;
15012;SDS011;7603;49.432;11.418;2022-09-09T10:05:00;1.80;;;1.48;;
15012;SDS011;7603;49.432;11.418;2022-09-09T10:07:27;2.13;;;1.30;;
15012;SDS011;7603;49.432;11.418;2022-09-09T10:09:55;1.80;;;1.35;;
15012;SDS011;7603;49.432;11.418;2022-09-09T10:12:37;1.85;;;1.30;;
15012;SDS011;7603;49.432;11.418;2022-09-09T10:15:25;4.15;;;1.45;;
15012;SDS011;7603;49.432;11.418;2022-09-09T10:26:14;1.20;;;1.10;;
15012;SDS011;7603;49.432;11.418;2022-09-09T10:31:33;1.60;;;1.30;;
15012;SDS011;7603;49.432;11.418;2022-09-09T10:37:03;1.90;;;1.40;;
15012;SDS011;7603;49.432;11.418;2022-09-09T10:39:40;2.40;;;1.45;;
15012;SDS011;7603;49.432;11.418;2022-09-09T10:42:07;2.45;;;1.20;;
15012;SDS011;7603;49.432;11.418;2022-09-09T10:44:47;1.85;;;1.50;;
15012;SDS011;7603;49.432;11.418;2022-09-09T10:50:32;3.17;;;1.40;;
15012;SDS011;7603;49.432;11.418;2022-09-09T10:55:59;1.55;;;1.23;;
15012;SDS011;7603;49.432;11.418;2022-09-09T10:58:31;1.50;;;1.20;;
15012;SDS011;7603;49.432;11.418;2022-09-09T11:01:13;1.15;;;0.90;;
15012;SDS011;7603;49.432;11.418;2022-09-09T11:03:51;1.98;;;1.50;;
15012;SDS011;7603;49.432;11.418;2022-09-09T11:06:36;2.22;;;1.27;;
15012;SDS011;7603;49.432;11.418;2022-09-09T11:09:05;3.63;;;1.52;;
15012;SDS011;7603;49.432;11.418;2022-09-09T11:11:36;2.20;;;1.30;;
15012;SDS011;7603;49.432;11.418;2022-09-09T11:14:15;1.92;;;0.90;;
15012;SDS011;7603;49.432;11.418;2022-09-09T11:16:51;1.45;;;1.10;;
15012;SDS011;7603;49.432;11.418;2022-09-09T11:19:34;1.33;;;1.00;;
15012;SDS011;7603;49.432;11.418;2022-09-09T11:22:18;1.95;;;0.95;;
15012;SDS011;7603;49.432;11.418;2022-09-09T11:30:21;2.83;;;1.30;;
15012;SDS011;7603;49.432;11.418;2022-09-09T11:38:19;2.45;;;1.60;;
15012;SDS011;7603;49.432;11.418;2022-09-09T11:40:46;3.67;;;1.42;;
15012;SDS011;7603;49.432;11.418;2022-09-09T11:43:23;1.45;;;1.25;;
15012;SDS011;7603;49.432;11.418;2022-09-09T11:45:52;1.95;;;1.40;;
15012;SDS011;7603;49.432;11.418;2022-09-09T11:51:00;1.33;;;1.10;;
15012;SDS011;7603;49.432;11.418;2022-09-09T11:53:53;2.20;;;1.48;;
15012;SDS011;7603;49.432;11.418;2022-09-09T11:56:24;3.15;;;1.33;;
15012;SDS011;7603;49.432;11.418;2022-09-09T11:59:05;2.53;;;1.40;;
15012;SDS011;7603;49.432;11.418;2022-09-09T12:01:44;1.80;;;1.70;;
15012;SDS011;7603;49.432;11.418;2022-09-09T12:06:52;5.22;;;1.50;;
15012;SDS011;7603;49.432;11.418;2022-09-09T12:17:26;5.95;;;1.92;;
15012;SDS011;7603;49.432;11.418;2022-09-09T12:20:38;2.63;;;1.77;;
15012;SDS011;7603;49.432;11.418;2022-09-09T12:33:50;5.75;;;1.90;;
15012;SDS011;7603;49.432;11.418;2022-09-09T12:36:24;4.82;;;1.77;;
15012;SDS011;7603;49.432;11.418;2022-09-09T12:38:56;4.75;;;2.00;;
15012;SDS011;7603;49.432;11.418;2022-09-09T12:41:35;4.45;;;1.98;;
15012;SDS011;7603;49.432;11.418;2022-09-09T12:44:05;3.55;;;2.40;;
15012;SDS011;7603;49.432;11.418;2022-09-09T12:46:40;7.15;;;4.05;;
15012;SDS011;7603;49.432;11.418;2022-09-09T12:49:25;17.35;;;2.78;;
15012;SDS011;7603;49.432;11.418;2022-09-09T12:51:51;23.38;;;3.03;;
15012;SDS011;7603;49.432;11.418;2022-09-09T12:54:18;7.38;;;2.63;;
15012;SDS011;7603;49.432;11.418;2022-09-09T12:56:45;17.60;;;2.33;;
15012;SDS011;7603;49.432;11.418;2022-09-09T12:59:23;7.80;;;2.10;;
15012;SDS011;7603;49.432;11.418;2022-09-09T13:02:00;4.40;;;2.05;;
15012;SDS011;7603;49.432;11.418;2022-09-09T13:04:26;10.15;;;2.83;;
15012;SDS011;7603;49.432;11.418;2022-09-09T13:06:52;13.63;;;2.75;;
15012;SDS011;7603;49.432;11.418;2022-09-09T13:09:17;55.05;;;5.75;;
15012;SDS011;7603;49.432;11.418;2022-09-09T13:11:48;2.50;;;1.10;;
15012;SDS011;7603;49.432;11.418;2022-09-09T13:14:18;15.90;;;5.00;;
15012;SDS011;7603;49.432;11.418;2022-09-09T13:19:00;6.05;;;3.15;;
15012;SDS011;7603;49.432;11.418;2022-09-09T13:21:34;4.95;;;2.60;;
15012;SDS011;7603;49.432;11.418;2022-09-09T13:24:07;9.02;;;3.58;;
15012;SDS011;7603;49.432;11.418;2022-09-09T13:27:03;9.48;;;3.25;;
15012;SDS011;7603;49.432;11.418;2022-09-09T13:29:50;6.80;;;3.88;;
15012;SDS011;7603;49.432;11.418;2022-09-09T13:32:20;92.18;;;16.27;;
15012;SDS011;7603;49.432;11.418;2022-09-09T13:37:36;5.90;;;2.85;;
15012;SDS011;7603;49.432;11.418;2022-09-09T13:40:03;6.00;;;2.55;;
15012;SDS011;7603;49.432;11.418;2022-09-09T13:42:32;2.72;;;2.20;;
15012;SDS011;7603;49.432;11.418;2022-09-09T13:45:02;6.97;;;2.92;;
15012;SDS011;7603;49.432;11.418;2022-09-09T13:47:33;6.57;;;2.78;;
15012;SDS011;7603;49.432;11.418;2022-09-09T13:50:22;5.47;;;2.58;;
15012;SDS011;7603;49.432;11.418;2022-09-09T13:52:49;2.70;;;2.20;;
15012;SDS011;7603;49.432;11.418;2022-09-09T13:55:18;2.20;;;1.90;;
15012;SDS011;7603;49.432;11.418;2022-09-09T13:58:04;6.20;;;2.53;;
15012;SDS011;7603;49.432;11.418;2022-09-09T14:00:34;7.57;;;2.28;;
15012;SDS011;7603;49.432;11.418;2022-09-09T14:03:00;6.25;;;3.00;;
15012;SDS011;7603;49.432;11.418;2022-09-09T14:05:30;8.02;;;3.85;;
15012;SDS011;7603;49.432;11.418;2022-09-09T14:07:57;9.70;;;3.92;;
15012;SDS011;7603;49.432;11.418;2022-09-09T14:10:25;9.07;;;3.60;;
15012;SDS011;7603;49.432;11.418;2022-09-09T14:12:51;5.35;;;2.53;;
15012;SDS011;7603;49.432;11.418;2022-09-09T14:15:17;5.50;;;3.08;;
15012;SDS011;7603;49.432;11.418;2022-09-09T14:17:44;4.90;;;2.20;;
15012;SDS011;7603;49.432;11.418;2022-09-09T14:20:09;5.57;;;2.40;;
15012;SDS011;7603;49.432;11.418;2022-09-09T14:22:37;3.35;;;2.47;;
15012;SDS011;7603;49.432;11.418;2022-09-09T14:25:04;5.65;;;3.00;;
15012;SDS011;7603;49.432;11.418;2022-09-09T14:27:31;6.90;;;3.50;;
15012;SDS011;7603;49.432;11.418;2022-09-09T14:29:57;2.90;;;2.30;;
15012;SDS011;7603;49.432;11.418;2022-09-09T14:32:25;4.65;;;3.22;;
15012;SDS011;7603;49.432;11.418;2022-09-09T14:34:51;6.85;;;2.88;;
15012;SDS011;7603;49.432;11.418;2022-09-09T14:37:17;16.30;;;4.65;;
15012;SDS011;7603;49.432;11.418;2022-09-09T14:39:43;12.88;;;4.20;;
15012;SDS011;7603;49.432;11.418;2022-09-09T14:42:10;88.90;;;11.60;;
15012;SDS011;7603;49.432;11.418;2022-09-09T14:44:37;3.17;;;1.95;;
15012;SDS011;7603;49.432;11.418;2022-09-09T14:47:06;2.58;;;1.98;;
15012;SDS011;7603;49.432;11.418;2022-09-09T14:49:35;2.25;;;1.30;;
15012;SDS011;7603;49.432;11.418;2022-09-09T14:52:02;1.88;;;1.40;;
15012;SDS011;7603;49.432;11.418;2022-09-09T14:54:28;3.03;;;1.80;;
15012;SDS011;7603;49.432;11.418;2022-09-09T14:56:55;1.63;;;1.38;;
15012;SDS011;7603;49.432;11.418;2022-09-09T14:59:21;3.47;;;1.70;;
15012;SDS011;7603;49.432;11.418;2022-09-09T15:01:47;1.63;;;1.27;;
15012;SDS011;7603;49.432;11.418;2022-09-09T15:04:13;2.85;;;1.58;;
15012;SDS011;7603;49.432;11.418;2022-09-09T15:06:42;1.80;;;1.55;;
15012;SDS011;7603;49.432;11.418;2022-09-09T15:09:11;2.97;;;1.67;;
15012;SDS011;7603;49.432;11.418;2022-09-09T15:11:37;3.58;;;1.95;;
15012;SDS011;7603;49.432;11.418;2022-09-09T15:14:04;6.35;;;2.92;;
15012;SDS011;7603;49.432;11.418;2022-09-09T15:16:30;3.90;;;1.90;;
15012;SDS011;7603;49.432;11.418;2022-09-09T15:18:57;4.40;;;2.10;;
15012;SDS011;7603;49.432;11.418;2022-09-09T15:21:29;8.93;;;3.20;;
15012;SDS011;7603;49.432;11.418;2022-09-09T15:23:57;7.35;;;2.60;;
15012;SDS011;7603;49.432;11.418;2022-09-09T15:26:24;34.28;;;5.03;;
15012;SDS011;7603;49.432;11.418;2022-09-09T15:28:51;4.55;;;2.85;;
15012;SDS011;7603;49.432;11.418;2022-09-09T15:31:18;2.05;;;1.50;;
15012;SDS011;7603;49.432;11.418;2022-09-09T15:33:54;2.28;;;1.23;;
15012;SDS011;7603;49.432;11.418;2022-09-09T15:36:26;1.52;;;1.33;;
15012;SDS011;7603;49.432;11.418;2022-09-09T15:38:57;2.60;;;1.25;;
15012;SDS011;7603;49.432;11.418;2022-09-09T15:41:26;1.45;;;1.08;;
15012;SDS011;7603;49.432;11.418;2022-09-09T15:43:54;3.35;;;1.55;;
15012;SDS011;7603;49.432;11.418;2022-09-09T15:49:03;1.83;;;1.20;;
15012;SDS011;7603;49.432;11.418;2022-09-09T15:51:46;1.35;;;1.10;;
15012;SDS011;7603;49.432;11.418;2022-09-09T15:54:17;2.97;;;1.10;;
15012;SDS011;7603;49.432;11.418;2022-09-09T15:56:44;2.15;;;1.20;;
15012;SDS011;7603;49.432;11.418;2022-09-09T15:59:11;1.48;;;1.10;;
15012;SDS011;7603;49.432;11.418;2022-09-09T16:01:37;1.70;;;0.95;;
15012;SDS011;7603;49.432;11.418;2022-09-09T16:04:07;1.50;;;1.05;;
15012;SDS011;7603;49.432;11.418;2022-09-09T16:06:33;1.10;;;0.90;;
15012;SDS011;7603;49.432;11.418;2022-09-09T16:08:59;0.98;;;0.85;;
15012;SDS011;7603;49.432;11.418;2022-09-09T16:11:28;1.10;;;1.00;;
15012;SDS011;7603;49.432;11.418;2022-09-09T16:13:56;0.90;;;0.90;;
15012;SDS011;7603;49.432;11.418;2022-09-09T16:16:26;2.05;;;1.00;;
15012;SDS011;7603;49.432;11.418;2022-09-09T16:18:54;0.98;;;0.82;;
15012;SDS011;7603;49.432;11.418;2022-09-09T16:21:39;1.02;;;0.90;;
15012;SDS011;7603;49.432;11.418;2022-09-09T16:24:10;2.15;;;1.00;;
15012;SDS011;7603;49.432;11.418;2022-09-09T16:26:39;1.38;;;1.10;;
15012;SDS011;7603;49.432;11.418;2022-09-09T16:29:10;2.63;;;1.40;;
15012;SDS011;7603;49.432;11.418;2022-09-09T16:31:36;1.80;;;1.30;;
15012;SDS011;7603;49.432;11.418;2022-09-09T16:34:02;1.05;;;0.95;;
15012;SDS011;7603;49.432;11.418;2022-09-09T16:36:29;2.05;;;1.02;;
15012;SDS011;7603;49.432;11.418;2022-09-09T16:38:57;2.35;;;1.20;;
15012;SDS011;7603;49.432;11.418;2022-09-09T16:41:25;1.35;;;1.25;;
15012;SDS011;7603;49.432;11.418;2022-09-09T16:43:55;1.77;;;1.23;;
15012;SDS011;7603;49.432;11.418;2022-09-09T16:46:22;1.67;;;1.30;;
15012;SDS011;7603;49.432;11.418;2022-09-09T16:48:49;1.90;;;1.20;;
15012;SDS011;7603;49.432;11.418;2022-09-09T16:51:16;2.50;;;1.58;;
15012;SDS011;7603;49.432;11.418;2022-09-09T16:53:48;1.60;;;1.30;;
15012;SDS011;7603;49.432;11.418;2022-09-09T16:56:16;2.17;;;1.52;;
15012;SDS011;7603;49.432;11.418;2022-09-09T16:58:43;2.00;;;1.80;;
15012;SDS011;7603;49.432;11.418;2022-09-09T17:01:15;1.77;;;1.13;;
15012;SDS011;7603;49.432;11.418;2022-09-09T17:03:41;3.65;;;1.60;;
15012;SDS011;7603;49.432;11.418;2022-09-09T17:06:13;3.05;;;1.60;;
15012;SDS011;7603;49.432;11.418;2022-09-09T17:08:40;2.20;;;1.23;;
15012;SDS011;7603;49.432;11.418;2022-09-09T17:11:17;2.55;;;1.73;;
15012;SDS011;7603;49.432;11.418;2022-09-09T17:13:44;3.15;;;2.50;;
15012;SDS011;7603;49.432;11.418;2022-09-09T17:16:11;3.42;;;3.13;;
15012;SDS011;7603;49.432;11.418;2022-09-09T17:18:38;4.45;;;3.35;;
15012;SDS011;7603;49.432;11.418;2022-09-09T17:21:05;7.60;;;4.43;;